sensor_id;sensor_type;location;lat;lon;timestamp;P1;durP1;ratioP1;P2;durP2;ratioP2
36653;SDS011;22650;49.350;20.898;2022-08-03T00:00:26;37.22;;;16.95;;
36653;SDS011;22650;49.350;20.898;2022-08-03T00:03:00;30.88;;;15.18;;
36653;SDS011;22650;49.350;20.898;2022-08-03T00:05:35;26.52;;;14.25;;
36653;SDS011;22650;49.350;20.898;2022-08-03T00:08:08;30.02;;;13.75;;
36653;SDS011;22650;49.350;20.898;2022-08-03T00:10:41;22.50;;;15.00;;
36653;SDS011;22650;49.350;20.898;2022-08-03T00:13:15;27.17;;;14.35;;
36653;SDS011;22650;49.350;20.898;2022-08-03T00:15:50;26.95;;;16.23;;
36653;SDS011;22650;49.350;20.898;2022-08-03T00:18:24;26.92;;;16.15;;
36653;SDS011;22650;49.350;20.898;2022-08-03T00:20:59;23.63;;;14.35;;
36653;SDS011;22650;49.350;20.898;2022-08-03T00:23:33;23.92;;;15.50;;
36653;SDS011;22650;49.350;20.898;2022-08-03T00:26:23;38.90;;;15.45;;
36653;SDS011;22650;49.350;20.898;2022-08-03T00:28:56;29.05;;;16.00;;
36653;SDS011;22650;49.350;20.898;2022-08-03T00:31:30;23.13;;;15.63;;
36653;SDS011;22650;49.350;20.898;2022-08-03T00:34:23;20.73;;;13.80;;
36653;SDS011;22650;49.350;20.898;2022-08-03T00:37:18;22.40;;;14.68;;
36653;SDS011;22650;49.350;20.898;2022-08-03T00:40:11;21.67;;;14.85;;
36653;SDS011;22650;49.350;20.898;2022-08-03T00:42:46;99.15;;;20.42;;
36653;SDS011;22650;49.350;20.898;2022-08-03T00:45:25;33.80;;;16.33;;
36653;SDS011;22650;49.350;20.898;2022-08-03T00:48:00;40.88;;;16.35;;
36653;SDS011;22650;49.350;20.898;2022-08-03T00:50:37;29.77;;;15.55;;
36653;SDS011;22650;49.350;20.898;2022-08-03T00:53:13;37.53;;;15.85;;
36653;SDS011;22650;49.350;20.898;2022-08-03T00:55:48;28.38;;;14.55;;
36653;SDS011;22650;49.350;20.898;2022-08-03T00:58:22;31.90;;;14.95;;
36653;SDS011;22650;49.350;20.898;2022-08-03T01:00:56;73.88;;;19.13;;
36653;SDS011;22650;49.350;20.898;2022-08-03T01:03:29;30.38;;;16.60;;
36653;SDS011;22650;49.350;20.898;2022-08-03T01:06:04;35.63;;;17.00;;
36653;SDS011;22650;49.350;20.898;2022-08-03T01:08:47;29.52;;;16.50;;
36653;SDS011;22650;49.350;20.898;2022-08-03T01:11:31;67.47;;;17.20;;
36653;SDS011;22650;49.350;20.898;2022-08-03T01:14:31;23.85;;;14.32;;
36653;SDS011;22650;49.350;20.898;2022-08-03T01:17:10;34.47;;;15.57;;
36653;SDS011;22650;49.350;20.898;2022-08-03T01:19:48;23.25;;;15.00;;
36653;SDS011;22650;49.350;20.898;2022-08-03T01:22:42;25.42;;;13.25;;
36653;SDS011;22650;49.350;20.898;2022-08-03T01:25:33;18.13;;;12.25;;
36653;SDS011;22650;49.350;20.898;2022-08-03T01:28:27;19.15;;;11.82;;
36653;SDS011;22650;49.350;20.898;2022-08-03T01:31:18;18.40;;;12.15;;
36653;SDS011;22650;49.350;20.898;2022-08-03T01:33:56;18.75;;;12.27;;
36653;SDS011;22650;49.350;20.898;2022-08-03T01:36:34;16.85;;;11.43;;
36653;SDS011;22650;49.350;20.898;2022-08-03T01:39:11;18.80;;;12.05;;
36653;SDS011;22650;49.350;20.898;2022-08-03T01:41:47;30.05;;;14.10;;
36653;SDS011;22650;49.350;20.898;2022-08-03T01:44:25;23.45;;;14.60;;
36653;SDS011;22650;49.350;20.898;2022-08-03T01:47:03;21.85;;;14.20;;
36653;SDS011;22650;49.350;20.898;2022-08-03T01:49:38;23.73;;;14.15;;
36653;SDS011;22650;49.350;20.898;2022-08-03T01:52:16;28.30;;;15.02;;
36653;SDS011;22650;49.350;20.898;2022-08-03T01:54:52;37.17;;;15.88;;
36653;SDS011;22650;49.350;20.898;2022-08-03T01:57:26;46.40;;;16.77;;
36653;SDS011;22650;49.350;20.898;2022-08-03T02:00:01;26.85;;;14.95;;
36653;SDS011;22650;49.350;20.898;2022-08-03T02:02:43;22.67;;;13.45;;
36653;SDS011;22650;49.350;20.898;2022-08-03T02:05:21;24.15;;;14.20;;
36653;SDS011;22650;49.350;20.898;2022-08-03T02:07:56;22.55;;;13.85;;
36653;SDS011;22650;49.350;20.898;2022-08-03T02:10:31;29.30;;;14.68;;
36653;SDS011;22650;49.350;20.898;2022-08-03T02:13:06;42.88;;;12.75;;
36653;SDS011;22650;49.350;20.898;2022-08-03T02:15:41;21.63;;;13.45;;
36653;SDS011;22650;49.350;20.898;2022-08-03T02:18:17;24.55;;;15.00;;
36653;SDS011;22650;49.350;20.898;2022-08-03T02:20:52;23.30;;;13.68;;
36653;SDS011;22650;49.350;20.898;2022-08-03T02:23:27;20.75;;;13.07;;
36653;SDS011;22650;49.350;20.898;2022-08-03T02:26:01;19.42;;;13.25;;
36653;SDS011;22650;49.350;20.898;2022-08-03T02:28:39;17.30;;;11.93;;
36653;SDS011;22650;49.350;20.898;2022-08-03T02:31:15;20.30;;;12.30;;
36653;SDS011;22650;49.350;20.898;2022-08-03T02:33:55;17.40;;;11.75;;
36653;SDS011;22650;49.350;20.898;2022-08-03T02:36:32;17.83;;;12.23;;
36653;SDS011;22650;49.350;20.898;2022-08-03T02:39:10;16.17;;;11.90;;
36653;SDS011;22650;49.350;20.898;2022-08-03T02:41:46;17.08;;;12.38;;
36653;SDS011;22650;49.350;20.898;2022-08-03T02:44:22;21.20;;;12.88;;
36653;SDS011;22650;49.350;20.898;2022-08-03T02:46:59;16.42;;;10.55;;
36653;SDS011;22650;49.350;20.898;2022-08-03T02:49:38;18.30;;;12.30;;
36653;SDS011;22650;49.350;20.898;2022-08-03T02:52:23;16.17;;;11.25;;
36653;SDS011;22650;49.350;20.898;2022-08-03T02:54:59;15.50;;;10.77;;
36653;SDS011;22650;49.350;20.898;2022-08-03T02:57:34;15.50;;;11.07;;
36653;SDS011;22650;49.350;20.898;2022-08-03T03:00:09;17.80;;;11.18;;
36653;SDS011;22650;49.350;20.898;2022-08-03T03:02:58;18.15;;;11.52;;
36653;SDS011;22650;49.350;20.898;2022-08-03T03:05:34;18.25;;;10.85;;
36653;SDS011;22650;49.350;20.898;2022-08-03T03:08:27;18.35;;;10.75;;
36653;SDS011;22650;49.350;20.898;2022-08-03T03:11:02;16.90;;;10.88;;
36653;SDS011;22650;49.350;20.898;2022-08-03T03:13:36;16.48;;;11.20;;
36653;SDS011;22650;49.350;20.898;2022-08-03T03:16:11;19.85;;;11.65;;
36653;SDS011;22650;49.350;20.898;2022-08-03T03:18:46;17.05;;;10.85;;
36653;SDS011;22650;49.350;20.898;2022-08-03T03:21:22;16.98;;;11.85;;
36653;SDS011;22650;49.350;20.898;2022-08-03T03:23:56;16.85;;;12.20;;
36653;SDS011;22650;49.350;20.898;2022-08-03T03:26:31;15.95;;;11.05;;
36653;SDS011;22650;49.350;20.898;2022-08-03T03:29:11;22.73;;;13.07;;
36653;SDS011;22650;49.350;20.898;2022-08-03T03:31:44;19.23;;;11.30;;
36653;SDS011;22650;49.350;20.898;2022-08-03T03:34:18;24.08;;;11.82;;
36653;SDS011;22650;49.350;20.898;2022-08-03T03:36:55;13.98;;;10.23;;
36653;SDS011;22650;49.350;20.898;2022-08-03T03:39:28;18.20;;;11.55;;
36653;SDS011;22650;49.350;20.898;2022-08-03T03:42:02;16.42;;;10.93;;
36653;SDS011;22650;49.350;20.898;2022-08-03T03:44:37;15.05;;;11.18;;
36653;SDS011;22650;49.350;20.898;2022-08-03T03:47:10;15.13;;;10.02;;
36653;SDS011;22650;49.350;20.898;2022-08-03T03:49:47;19.98;;;12.02;;
36653;SDS011;22650;49.350;20.898;2022-08-03T03:52:24;18.85;;;12.32;;
36653;SDS011;22650;49.350;20.898;2022-08-03T03:54:57;17.38;;;11.93;;
36653;SDS011;22650;49.350;20.898;2022-08-03T03:57:33;18.13;;;12.02;;
36653;SDS011;22650;49.350;20.898;2022-08-03T04:00:07;17.27;;;11.32;;
36653;SDS011;22650;49.350;20.898;2022-08-03T04:02:41;18.40;;;12.43;;
36653;SDS011;22650;49.350;20.898;2022-08-03T04:05:15;18.10;;;11.68;;
36653;SDS011;22650;49.350;20.898;2022-08-03T04:08:07;28.60;;;10.95;;
36653;SDS011;22650;49.350;20.898;2022-08-03T04:11:02;22.52;;;12.57;;
36653;SDS011;22650;49.350;20.898;2022-08-03T04:13:41;19.23;;;12.05;;
36653;SDS011;22650;49.350;20.898;2022-08-03T04:16:19;15.65;;;10.57;;
36653;SDS011;22650;49.350;20.898;2022-08-03T04:18:56;19.70;;;12.07;;
36653;SDS011;22650;49.350;20.898;2022-08-03T04:21:32;26.13;;;13.05;;
36653;SDS011;22650;49.350;20.898;2022-08-03T04:24:10;29.48;;;12.40;;
36653;SDS011;22650;49.350;20.898;2022-08-03T04:26:47;34.45;;;10.63;;
36653;SDS011;22650;49.350;20.898;2022-08-03T04:29:23;26.77;;;11.40;;
36653;SDS011;22650;49.350;20.898;2022-08-03T04:31:58;31.25;;;13.45;;
36653;SDS011;22650;49.350;20.898;2022-08-03T04:34:33;20.27;;;11.18;;
36653;SDS011;22650;49.350;20.898;2022-08-03T04:37:08;15.80;;;10.82;;
36653;SDS011;22650;49.350;20.898;2022-08-03T04:39:45;35.85;;;14.73;;
36653;SDS011;22650;49.350;20.898;2022-08-03T04:42:22;28.30;;;11.48;;
36653;SDS011;22650;49.350;20.898;2022-08-03T04:44:56;21.05;;;12.30;;
36653;SDS011;22650;49.350;20.898;2022-08-03T04:47:32;26.17;;;13.10;;
36653;SDS011;22650;49.350;20.898;2022-08-03T04:50:06;19.13;;;12.40;;
36653;SDS011;22650;49.350;20.898;2022-08-03T04:52:45;21.83;;;12.55;;
36653;SDS011;22650;49.350;20.898;2022-08-03T04:55:27;42.47;;;13.38;;
36653;SDS011;22650;49.350;20.898;2022-08-03T04:58:01;22.75;;;12.57;;
36653;SDS011;22650;49.350;20.898;2022-08-03T05:00:35;19.80;;;12.50;;
36653;SDS011;22650;49.350;20.898;2022-08-03T05:03:09;38.88;;;14.07;;
36653;SDS011;22650;49.350;20.898;2022-08-03T05:05:54;22.38;;;13.95;;
36653;SDS011;22650;49.350;20.898;2022-08-03T05:08:40;17.88;;;11.95;;
36653;SDS011;22650;49.350;20.898;2022-08-03T05:11:20;15.73;;;9.75;;
36653;SDS011;22650;49.350;20.898;2022-08-03T05:13:54;45.78;;;13.95;;
36653;SDS011;22650;49.350;20.898;2022-08-03T05:16:27;27.13;;;11.38;;
36653;SDS011;22650;49.350;20.898;2022-08-03T05:19:00;15.57;;;10.73;;
36653;SDS011;22650;49.350;20.898;2022-08-03T05:21:34;16.15;;;10.80;;
36653;SDS011;22650;49.350;20.898;2022-08-03T05:24:23;29.08;;;10.05;;
36653;SDS011;22650;49.350;20.898;2022-08-03T05:26:59;21.83;;;11.60;;
36653;SDS011;22650;49.350;20.898;2022-08-03T05:29:32;15.50;;;9.80;;
36653;SDS011;22650;49.350;20.898;2022-08-03T05:32:06;23.00;;;12.23;;
36653;SDS011;22650;49.350;20.898;2022-08-03T05:34:39;16.40;;;11.18;;
36653;SDS011;22650;49.350;20.898;2022-08-03T05:37:13;16.30;;;11.02;;
36653;SDS011;22650;49.350;20.898;2022-08-03T05:39:46;11.98;;;8.93;;
36653;SDS011;22650;49.350;20.898;2022-08-03T05:42:21;16.27;;;10.18;;
36653;SDS011;22650;49.350;20.898;2022-08-03T05:44:54;18.23;;;11.70;;
36653;SDS011;22650;49.350;20.898;2022-08-03T05:47:28;20.05;;;11.32;;
36653;SDS011;22650;49.350;20.898;2022-08-03T05:50:02;17.58;;;11.07;;
36653;SDS011;22650;49.350;20.898;2022-08-03T05:52:36;16.08;;;11.02;;
36653;SDS011;22650;49.350;20.898;2022-08-03T05:55:10;21.98;;;11.55;;
36653;SDS011;22650;49.350;20.898;2022-08-03T05:57:46;20.67;;;12.75;;
36653;SDS011;22650;49.350;20.898;2022-08-03T06:00:19;15.43;;;10.50;;
36653;SDS011;22650;49.350;20.898;2022-08-03T06:02:56;29.75;;;11.70;;
36653;SDS011;22650;49.350;20.898;2022-08-03T06:05:29;16.02;;;10.52;;
36653;SDS011;22650;49.350;20.898;2022-08-03T06:08:13;17.33;;;10.45;;
36653;SDS011;22650;49.350;20.898;2022-08-03T06:10:48;14.63;;;9.75;;
36653;SDS011;22650;49.350;20.898;2022-08-03T06:13:23;15.43;;;11.00;;
36653;SDS011;22650;49.350;20.898;2022-08-03T06:15:56;15.80;;;10.05;;
36653;SDS011;22650;49.350;20.898;2022-08-03T06:18:30;14.57;;;10.50;;
36653;SDS011;22650;49.350;20.898;2022-08-03T06:21:03;23.83;;;11.30;;
36653;SDS011;22650;49.350;20.898;2022-08-03T06:23:46;25.17;;;11.73;;
36653;SDS011;22650;49.350;20.898;2022-08-03T06:26:26;19.25;;;11.77;;
36653;SDS011;22650;49.350;20.898;2022-08-03T06:29:01;18.88;;;11.20;;
36653;SDS011;22650;49.350;20.898;2022-08-03T06:31:34;15.70;;;11.88;;
36653;SDS011;22650;49.350;20.898;2022-08-03T06:34:08;17.15;;;12.27;;
36653;SDS011;22650;49.350;20.898;2022-08-03T06:37:02;17.17;;;11.95;;
36653;SDS011;22650;49.350;20.898;2022-08-03T06:39:35;19.88;;;10.25;;
36653;SDS011;22650;49.350;20.898;2022-08-03T06:42:09;15.57;;;11.32;;
36653;SDS011;22650;49.350;20.898;2022-08-03T06:44:43;15.32;;;11.40;;
36653;SDS011;22650;49.350;20.898;2022-08-03T06:47:17;16.60;;;11.80;;
36653;SDS011;22650;49.350;20.898;2022-08-03T06:49:50;14.68;;;11.07;;
36653;SDS011;22650;49.350;20.898;2022-08-03T06:52:44;16.40;;;11.60;;
36653;SDS011;22650;49.350;20.898;2022-08-03T06:55:17;15.32;;;11.20;;
36653;SDS011;22650;49.350;20.898;2022-08-03T06:57:51;18.08;;;12.77;;
36653;SDS011;22650;49.350;20.898;2022-08-03T07:00:31;12.75;;;9.90;;
36653;SDS011;22650;49.350;20.898;2022-08-03T07:03:05;13.43;;;9.63;;
36653;SDS011;22650;49.350;20.898;2022-08-03T07:05:38;13.68;;;10.38;;
36653;SDS011;22650;49.350;20.898;2022-08-03T07:08:13;14.48;;;9.63;;
36653;SDS011;22650;49.350;20.898;2022-08-03T07:10:46;12.48;;;10.00;;
36653;SDS011;22650;49.350;20.898;2022-08-03T07:13:19;11.35;;;8.88;;
36653;SDS011;22650;49.350;20.898;2022-08-03T07:15:54;12.20;;;9.43;;
36653;SDS011;22650;49.350;20.898;2022-08-03T07:18:28;10.88;;;8.75;;
36653;SDS011;22650;49.350;20.898;2022-08-03T07:21:01;12.20;;;9.40;;
36653;SDS011;22650;49.350;20.898;2022-08-03T07:23:35;14.07;;;11.25;;
36653;SDS011;22650;49.350;20.898;2022-08-03T07:26:08;12.35;;;9.82;;
36653;SDS011;22650;49.350;20.898;2022-08-03T07:28:42;13.40;;;10.38;;
36653;SDS011;22650;49.350;20.898;2022-08-03T07:31:17;13.93;;;11.23;;
36653;SDS011;22650;49.350;20.898;2022-08-03T07:33:50;13.57;;;10.38;;
36653;SDS011;22650;49.350;20.898;2022-08-03T07:36:24;14.85;;;10.82;;
36653;SDS011;22650;49.350;20.898;2022-08-03T07:38:57;13.43;;;11.57;;
36653;SDS011;22650;49.350;20.898;2022-08-03T07:41:46;18.55;;;13.38;;
36653;SDS011;22650;49.350;20.898;2022-08-03T07:44:22;17.15;;;11.65;;
36653;SDS011;22650;49.350;20.898;2022-08-03T07:46:57;12.35;;;9.88;;
36653;SDS011;22650;49.350;20.898;2022-08-03T07:49:37;12.13;;;10.18;;
36653;SDS011;22650;49.350;20.898;2022-08-03T07:52:12;13.65;;;9.45;;
36653;SDS011;22650;49.350;20.898;2022-08-03T07:55:03;11.70;;;8.77;;
36653;SDS011;22650;49.350;20.898;2022-08-03T07:57:38;11.23;;;7.88;;
36653;SDS011;22650;49.350;20.898;2022-08-03T08:00:12;10.20;;;8.30;;
36653;SDS011;22650;49.350;20.898;2022-08-03T08:02:49;12.52;;;7.28;;
36653;SDS011;22650;49.350;20.898;2022-08-03T08:05:23;10.63;;;7.20;;
36653;SDS011;22650;49.350;20.898;2022-08-03T08:07:56;10.00;;;7.90;;
36653;SDS011;22650;49.350;20.898;2022-08-03T08:10:30;10.88;;;6.97;;
36653;SDS011;22650;49.350;20.898;2022-08-03T08:13:04;9.73;;;7.40;;
36653;SDS011;22650;49.350;20.898;2022-08-03T08:15:37;9.38;;;6.68;;
36653;SDS011;22650;49.350;20.898;2022-08-03T08:18:15;9.93;;;7.63;;
36653;SDS011;22650;49.350;20.898;2022-08-03T08:20:50;13.55;;;8.27;;
36653;SDS011;22650;49.350;20.898;2022-08-03T08:23:23;9.30;;;6.85;;
36653;SDS011;22650;49.350;20.898;2022-08-03T08:26:15;11.77;;;8.13;;
36653;SDS011;22650;49.350;20.898;2022-08-03T08:28:48;10.43;;;7.07;;
36653;SDS011;22650;49.350;20.898;2022-08-03T08:31:23;8.63;;;7.70;;
36653;SDS011;22650;49.350;20.898;2022-08-03T08:33:58;10.48;;;8.02;;
36653;SDS011;22650;49.350;20.898;2022-08-03T08:36:36;16.40;;;7.28;;
36653;SDS011;22650;49.350;20.898;2022-08-03T08:39:09;10.77;;;7.60;;
36653;SDS011;22650;49.350;20.898;2022-08-03T08:41:49;25.33;;;8.95;;
36653;SDS011;22650;49.350;20.898;2022-08-03T08:44:23;23.60;;;7.97;;
36653;SDS011;22650;49.350;20.898;2022-08-03T08:46:57;15.13;;;7.68;;
36653;SDS011;22650;49.350;20.898;2022-08-03T08:49:36;10.88;;;7.20;;
36653;SDS011;22650;49.350;20.898;2022-08-03T08:52:32;11.82;;;7.72;;
36653;SDS011;22650;49.350;20.898;2022-08-03T08:55:07;11.38;;;7.22;;
36653;SDS011;22650;49.350;20.898;2022-08-03T08:57:44;8.45;;;7.40;;
36653;SDS011;22650;49.350;20.898;2022-08-03T09:00:20;11.00;;;7.35;;
36653;SDS011;22650;49.350;20.898;2022-08-03T09:02:54;10.40;;;7.32;;
36653;SDS011;22650;49.350;20.898;2022-08-03T09:05:28;7.35;;;6.55;;
36653;SDS011;22650;49.350;20.898;2022-08-03T09:08:23;8.68;;;7.00;;
36653;SDS011;22650;49.350;20.898;2022-08-03T09:10:57;10.38;;;7.15;;
36653;SDS011;22650;49.350;20.898;2022-08-03T09:13:31;11.30;;;7.57;;
36653;SDS011;22650;49.350;20.898;2022-08-03T09:16:12;7.72;;;6.43;;
36653;SDS011;22650;49.350;20.898;2022-08-03T09:18:46;10.63;;;7.20;;
36653;SDS011;22650;49.350;20.898;2022-08-03T09:21:23;8.07;;;6.65;;
36653;SDS011;22650;49.350;20.898;2022-08-03T09:24:04;8.18;;;5.95;;
36653;SDS011;22650;49.350;20.898;2022-08-03T09:26:56;7.57;;;6.50;;
36653;SDS011;22650;49.350;20.898;2022-08-03T09:29:30;8.70;;;6.18;;
36653;SDS011;22650;49.350;20.898;2022-08-03T09:32:04;7.40;;;6.63;;
36653;SDS011;22650;49.350;20.898;2022-08-03T09:34:37;12.30;;;6.60;;
36653;SDS011;22650;49.350;20.898;2022-08-03T09:37:13;7.38;;;6.10;;
36653;SDS011;22650;49.350;20.898;2022-08-03T09:39:47;7.55;;;5.80;;
36653;SDS011;22650;49.350;20.898;2022-08-03T09:42:21;7.68;;;6.45;;
36653;SDS011;22650;49.350;20.898;2022-08-03T09:44:54;7.88;;;4.75;;
36653;SDS011;22650;49.350;20.898;2022-08-03T09:47:29;5.65;;;5.03;;
36653;SDS011;22650;49.350;20.898;2022-08-03T09:50:05;5.72;;;5.20;;
36653;SDS011;22650;49.350;20.898;2022-08-03T09:52:42;5.93;;;4.95;;
36653;SDS011;22650;49.350;20.898;2022-08-03T09:55:23;5.47;;;4.13;;
36653;SDS011;22650;49.350;20.898;2022-08-03T09:58:16;4.63;;;4.10;;
36653;SDS011;22650;49.350;20.898;2022-08-03T10:00:52;4.72;;;4.00;;
36653;SDS011;22650;49.350;20.898;2022-08-03T10:03:27;8.15;;;4.43;;
36653;SDS011;22650;49.350;20.898;2022-08-03T10:06:13;4.45;;;4.00;;
36653;SDS011;22650;49.350;20.898;2022-08-03T10:09:03;4.88;;;4.38;;
36653;SDS011;22650;49.350;20.898;2022-08-03T10:11:38;4.57;;;4.10;;
36653;SDS011;22650;49.350;20.898;2022-08-03T10:14:13;6.07;;;3.47;;
36653;SDS011;22650;49.350;20.898;2022-08-03T10:16:50;3.53;;;3.05;;
36653;SDS011;22650;49.350;20.898;2022-08-03T10:19:24;3.65;;;3.30;;
36653;SDS011;22650;49.350;20.898;2022-08-03T10:22:01;4.78;;;4.05;;
36653;SDS011;22650;49.350;20.898;2022-08-03T10:24:42;14.30;;;3.50;;
36653;SDS011;22650;49.350;20.898;2022-08-03T10:27:21;5.70;;;3.33;;
36653;SDS011;22650;49.350;20.898;2022-08-03T10:29:56;4.18;;;3.15;;
36653;SDS011;22650;49.350;20.898;2022-08-03T10:32:34;4.03;;;3.38;;
36653;SDS011;22650;49.350;20.898;2022-08-03T10:35:13;5.93;;;3.58;;
36653;SDS011;22650;49.350;20.898;2022-08-03T10:37:51;4.55;;;4.15;;
36653;SDS011;22650;49.350;20.898;2022-08-03T10:40:32;6.10;;;4.45;;
36653;SDS011;22650;49.350;20.898;2022-08-03T10:43:30;4.75;;;4.03;;
36653;SDS011;22650;49.350;20.898;2022-08-03T10:46:08;5.53;;;4.70;;
36653;SDS011;22650;49.350;20.898;2022-08-03T10:48:42;14.73;;;6.88;;
36653;SDS011;22650;49.350;20.898;2022-08-03T10:51:16;7.32;;;5.22;;
36653;SDS011;22650;49.350;20.898;2022-08-03T10:53:50;16.30;;;5.50;;
36653;SDS011;22650;49.350;20.898;2022-08-03T10:56:39;6.75;;;4.53;;
36653;SDS011;22650;49.350;20.898;2022-08-03T11:05:38;8.68;;;4.05;;
36653;SDS011;22650;49.350;20.898;2022-08-03T11:08:20;7.32;;;5.43;;
36653;SDS011;22650;49.350;20.898;2022-08-03T11:10:59;5.28;;;3.80;;
36653;SDS011;22650;49.350;20.898;2022-08-03T11:13:36;7.72;;;3.65;;
36653;SDS011;22650;49.350;20.898;2022-08-03T11:16:17;5.90;;;3.85;;
36653;SDS011;22650;49.350;20.898;2022-08-03T11:27:32;5.30;;;4.20;;
36653;SDS011;22650;49.350;20.898;2022-08-03T11:30:08;5.97;;;4.38;;
36653;SDS011;22650;49.350;20.898;2022-08-03T11:32:57;7.82;;;4.82;;
36653;SDS011;22650;49.350;20.898;2022-08-03T11:35:31;6.13;;;4.75;;
36653;SDS011;22650;49.350;20.898;2022-08-03T11:38:07;5.13;;;4.25;;
36653;SDS011;22650;49.350;20.898;2022-08-03T11:40:42;5.38;;;4.47;;
36653;SDS011;22650;49.350;20.898;2022-08-03T11:46:18;4.63;;;4.15;;
36653;SDS011;22650;49.350;20.898;2022-08-03T11:49:02;6.13;;;4.50;;
36653;SDS011;22650;49.350;20.898;2022-08-03T11:51:41;4.75;;;4.22;;
36653;SDS011;22650;49.350;20.898;2022-08-03T11:54:15;5.95;;;4.15;;
36653;SDS011;22650;49.350;20.898;2022-08-03T11:56:53;7.32;;;4.40;;
36653;SDS011;22650;49.350;20.898;2022-08-03T11:59:30;7.43;;;4.35;;
36653;SDS011;22650;49.350;20.898;2022-08-03T12:02:06;4.93;;;4.43;;
36653;SDS011;22650;49.350;20.898;2022-08-03T12:04:49;5.05;;;4.53;;
36653;SDS011;22650;49.350;20.898;2022-08-03T12:07:23;5.38;;;4.60;;
36653;SDS011;22650;49.350;20.898;2022-08-03T12:10:18;7.80;;;5.00;;
36653;SDS011;22650;49.350;20.898;2022-08-03T12:12:53;5.75;;;4.30;;
36653;SDS011;22650;49.350;20.898;2022-08-03T12:15:30;6.57;;;5.05;;
36653;SDS011;22650;49.350;20.898;2022-08-03T12:18:13;5.22;;;4.45;;
36653;SDS011;22650;49.350;20.898;2022-08-03T12:20:48;8.13;;;4.85;;
36653;SDS011;22650;49.350;20.898;2022-08-03T12:23:22;7.30;;;5.07;;
36653;SDS011;22650;49.350;20.898;2022-08-03T12:26:02;5.45;;;4.63;;
36653;SDS011;22650;49.350;20.898;2022-08-03T12:28:37;6.50;;;4.80;;
36653;SDS011;22650;49.350;20.898;2022-08-03T12:31:20;6.10;;;4.22;;
36653;SDS011;22650;49.350;20.898;2022-08-03T12:33:56;6.95;;;4.20;;
36653;SDS011;22650;49.350;20.898;2022-08-03T12:36:33;5.32;;;4.32;;
36653;SDS011;22650;49.350;20.898;2022-08-03T12:39:08;4.53;;;4.00;;
36653;SDS011;22650;49.350;20.898;2022-08-03T12:41:42;9.75;;;4.10;;
36653;SDS011;22650;49.350;20.898;2022-08-03T12:44:15;4.82;;;4.28;;
36653;SDS011;22650;49.350;20.898;2022-08-03T12:46:56;6.90;;;4.30;;
36653;SDS011;22650;49.350;20.898;2022-08-03T12:49:44;4.72;;;3.97;;
36653;SDS011;22650;49.350;20.898;2022-08-03T12:52:20;7.20;;;4.72;;
36653;SDS011;22650;49.350;20.898;2022-08-03T12:54:57;4.78;;;4.32;;
36653;SDS011;22650;49.350;20.898;2022-08-03T12:57:38;4.22;;;3.80;;
36653;SDS011;22650;49.350;20.898;2022-08-03T13:00:13;7.80;;;4.50;;
36653;SDS011;22650;49.350;20.898;2022-08-03T13:03:00;5.85;;;3.85;;
36653;SDS011;22650;49.350;20.898;2022-08-03T13:05:56;6.55;;;4.45;;
36653;SDS011;22650;49.350;20.898;2022-08-03T13:08:30;4.53;;;3.78;;
36653;SDS011;22650;49.350;20.898;2022-08-03T13:11:16;6.22;;;4.18;;
36653;SDS011;22650;49.350;20.898;2022-08-03T13:14:13;6.53;;;4.60;;
36653;SDS011;22650;49.350;20.898;2022-08-03T13:16:50;8.32;;;4.93;;
36653;SDS011;22650;49.350;20.898;2022-08-03T13:19:24;4.60;;;3.92;;
36653;SDS011;22650;49.350;20.898;2022-08-03T13:21:59;3.65;;;3.28;;
36653;SDS011;22650;49.350;20.898;2022-08-03T13:24:35;4.32;;;3.83;;
36653;SDS011;22650;49.350;20.898;2022-08-03T13:27:08;5.03;;;3.70;;
36653;SDS011;22650;49.350;20.898;2022-08-03T13:30:02;4.80;;;4.13;;
36653;SDS011;22650;49.350;20.898;2022-08-03T13:32:36;7.22;;;4.13;;
36653;SDS011;22650;49.350;20.898;2022-08-03T13:35:10;6.82;;;4.30;;
36653;SDS011;22650;49.350;20.898;2022-08-03T13:37:48;9.38;;;3.88;;
36653;SDS011;22650;49.350;20.898;2022-08-03T13:40:22;7.38;;;5.03;;
36653;SDS011;22650;49.350;20.898;2022-08-03T13:43:00;9.02;;;4.35;;
36653;SDS011;22650;49.350;20.898;2022-08-03T13:45:34;4.38;;;3.45;;
36653;SDS011;22650;49.350;20.898;2022-08-03T13:48:07;8.00;;;4.47;;
36653;SDS011;22650;49.350;20.898;2022-08-03T13:50:41;4.75;;;3.65;;
36653;SDS011;22650;49.350;20.898;2022-08-03T13:53:16;4.97;;;3.92;;
36653;SDS011;22650;49.350;20.898;2022-08-03T13:55:49;6.10;;;4.13;;
36653;SDS011;22650;49.350;20.898;2022-08-03T13:58:23;4.07;;;3.42;;
36653;SDS011;22650;49.350;20.898;2022-08-03T14:00:56;4.28;;;3.55;;
36653;SDS011;22650;49.350;20.898;2022-08-03T14:03:29;4.68;;;3.67;;
36653;SDS011;22650;49.350;20.898;2022-08-03T14:06:03;5.07;;;3.67;;
36653;SDS011;22650;49.350;20.898;2022-08-03T14:08:38;3.45;;;3.03;;
36653;SDS011;22650;49.350;20.898;2022-08-03T14:11:11;3.40;;;3.10;;
36653;SDS011;22650;49.350;20.898;2022-08-03T14:13:45;3.53;;;2.90;;
36653;SDS011;22650;49.350;20.898;2022-08-03T14:16:18;4.70;;;3.20;;
36653;SDS011;22650;49.350;20.898;2022-08-03T14:18:52;3.60;;;3.30;;
36653;SDS011;22650;49.350;20.898;2022-08-03T14:21:28;4.22;;;3.38;;
36653;SDS011;22650;49.350;20.898;2022-08-03T14:24:03;5.72;;;3.17;;
36653;SDS011;22650;49.350;20.898;2022-08-03T14:26:37;3.67;;;2.80;;
36653;SDS011;22650;49.350;20.898;2022-08-03T14:29:11;3.42;;;3.13;;
36653;SDS011;22650;49.350;20.898;2022-08-03T14:31:44;3.28;;;2.97;;
36653;SDS011;22650;49.350;20.898;2022-08-03T14:34:37;5.38;;;3.08;;
36653;SDS011;22650;49.350;20.898;2022-08-03T14:37:11;3.72;;;2.92;;
36653;SDS011;22650;49.350;20.898;2022-08-03T14:39:46;3.28;;;2.92;;
36653;SDS011;22650;49.350;20.898;2022-08-03T14:42:35;3.10;;;2.80;;
36653;SDS011;22650;49.350;20.898;2022-08-03T14:45:27;6.17;;;3.40;;
36653;SDS011;22650;49.350;20.898;2022-08-03T14:48:00;2.72;;;2.53;;
36653;SDS011;22650;49.350;20.898;2022-08-03T14:50:55;4.00;;;3.00;;
36653;SDS011;22650;49.350;20.898;2022-08-03T14:53:28;4.22;;;3.60;;
36653;SDS011;22650;49.350;20.898;2022-08-03T14:56:03;23.90;;;9.68;;
36653;SDS011;22650;49.350;20.898;2022-08-03T14:58:41;12.25;;;6.15;;
36653;SDS011;22650;49.350;20.898;2022-08-03T15:01:14;9.13;;;4.90;;
36653;SDS011;22650;49.350;20.898;2022-08-03T15:04:08;5.82;;;3.95;;
36653;SDS011;22650;49.350;20.898;2022-08-03T15:06:41;6.10;;;3.45;;
36653;SDS011;22650;49.350;20.898;2022-08-03T15:09:21;19.05;;;5.20;;
36653;SDS011;22650;49.350;20.898;2022-08-03T15:11:56;7.57;;;4.90;;
36653;SDS011;22650;49.350;20.898;2022-08-03T15:14:30;3.88;;;3.25;;
36653;SDS011;22650;49.350;20.898;2022-08-03T15:17:09;6.90;;;3.83;;
36653;SDS011;22650;49.350;20.898;2022-08-03T15:19:43;10.10;;;3.42;;
36653;SDS011;22650;49.350;20.898;2022-08-03T15:22:37;4.85;;;2.90;;
36653;SDS011;22650;49.350;20.898;2022-08-03T15:25:11;4.15;;;3.20;;
36653;SDS011;22650;49.350;20.898;2022-08-03T15:28:06;6.03;;;3.05;;
36653;SDS011;22650;49.350;20.898;2022-08-03T15:30:39;5.28;;;3.13;;
36653;SDS011;22650;49.350;20.898;2022-08-03T15:33:13;3.58;;;3.22;;
36653;SDS011;22650;49.350;20.898;2022-08-03T15:35:46;3.67;;;3.28;;
36653;SDS011;22650;49.350;20.898;2022-08-03T15:38:20;3.95;;;3.10;;